createdAt,value
2022-11-23T00:01:29.524Z,99248.06
2022-11-23T00:04:00.769Z,99248.31
2022-11-23T00:06:28.982Z,99243.91
2022-11-23T00:08:56.932Z,99234.56
2022-11-23T00:11:26.098Z,99237.72
2022-11-23T00:13:54.605Z,99235.91
2022-11-23T00:16:27.802Z,99222.69
2022-11-23T00:18:57.271Z,99223.44
2022-11-23T00:21:27.082Z,99225.53
2022-11-23T00:23:54.637Z,99228.38
2022-11-23T00:26:22.245Z,99226.81
2022-11-23T00:28:50.192Z,99214.66
2022-11-23T00:31:20.199Z,99223.72
2022-11-23T00:33:53.060Z,99225.28
2022-11-23T00:36:22.238Z,99221.66
2022-11-23T00:38:50.925Z,99229.94
2022-11-23T00:41:24.648Z,99239.00
2022-11-23T00:43:53.067Z,99263.06
2022-11-23T00:46:26.312Z,99267.69
2022-11-23T00:48:56.343Z,99288.16
2022-11-23T00:51:27.027Z,99286.34
2022-11-23T00:53:54.881Z,99289.19
2022-11-23T00:56:24.708Z,99291.53
2022-11-23T00:58:53.898Z,99292.56
2022-11-23T01:01:29.289Z,99287.66
2022-11-23T01:03:58.756Z,99286.34
2022-11-23T01:06:40.135Z,99284.03
2022-11-23T01:09:13.541Z,99285.06
2022-11-23T01:11:41.886Z,99268.75
2022-11-23T01:14:09.540Z,99272.38
2022-11-23T01:16:41.387Z,99270.84
2022-11-23T01:19:15.336Z,99271.34
2022-11-23T01:21:43.958Z,99261.00
2022-11-23T01:24:18.295Z,99260.47
2022-11-23T01:26:46.501Z,99263.06
2022-11-23T01:29:14.492Z,99262.53
2022-11-23T01:31:46.518Z,99272.38
2022-11-23T01:34:16.381Z,99266.69
2022-11-23T01:36:44.455Z,99259.16
2022-11-23T01:39:13.023Z,99262.53
2022-11-23T01:41:42.963Z,99262.03
2022-11-23T01:44:28.024Z,99263.56
2022-11-23T01:46:59.574Z,99262.03
2022-11-23T01:49:33.702Z,99261.50
2022-11-23T01:52:06.884Z,99272.09
2022-11-23T01:54:55.965Z,99263.06
2022-11-23T01:57:38.882Z,99257.03
2022-11-23T02:00:08.991Z,99248.56
2022-11-23T02:02:49.648Z,99248.31
2022-11-23T02:05:21.072Z,99249.59
2022-11-23T02:07:50.742Z,99244.66
2022-11-23T02:10:19.696Z,99246.44
2022-11-23T02:12:47.839Z,99253.16
2022-11-23T02:15:15.837Z,99242.25
2022-11-23T02:17:44.284Z,99235.25
2022-11-23T02:20:17.729Z,99233.44
2022-11-23T02:22:51.596Z,99230.06
2022-11-23T02:25:44.146Z,99221.78
2022-11-23T02:28:23.431Z,99220.00
2022-11-23T02:30:54.608Z,99210.16
2022-11-23T02:33:25.449Z,99219.19
2022-11-23T02:35:55.896Z,99212.72
2022-11-23T02:38:27.621Z,99207.78
2022-11-23T02:40:57.605Z,99202.38
2022-11-23T02:43:25.825Z,99202.91
2022-11-23T02:46:01.762Z,99205.97
2022-11-23T02:48:29.767Z,99206.03
2022-11-23T02:50:57.441Z,99212.78
2022-11-23T02:53:25.007Z,99211.22
2022-11-23T02:55:53.791Z,99194.41
2022-11-23T02:58:21.357Z,99208.66
2022-11-23T03:00:49.232Z,99199.88
2022-11-23T03:03:19.617Z,99203.44
2022-11-23T03:05:47.150Z,99200.63
2022-11-23T03:08:15.075Z,99200.87
2022-11-23T03:10:43.539Z,99187.44
2022-11-23T03:13:11.425Z,99198.31
2022-11-23T03:15:39.290Z,99198.06
2022-11-23T03:18:07.694Z,99193.16
2022-11-23T03:20:35.511Z,99201.22
2022-11-23T03:23:03.063Z,99202.75
2022-11-23T03:25:31.554Z,99192.66
2022-11-23T03:27:59.215Z,99199.38
2022-11-23T03:30:27.306Z,99198.34
2022-11-23T03:32:55.475Z,99192.91
2022-11-23T03:35:24.141Z,99197.81
2022-11-23T03:37:56.725Z,99201.47
2022-11-23T03:40:24.296Z,99204.28
2022-11-23T03:42:58.332Z,99201.69
2022-11-23T03:45:26.198Z,99204.25
2022-11-23T03:47:54.079Z,99208.66
2022-11-23T03:50:21.660Z,99201.69
2022-11-23T03:52:50.343Z,99210.22
2022-11-23T03:55:18.123Z,99209.72
2022-11-23T03:57:48.319Z,99214.88
2022-11-23T04:00:16.716Z,99215.37
2022-11-23T04:02:45.330Z,99213.84
2022-11-23T04:05:13.714Z,99206.84
2022-11-23T04:07:43.377Z,99216.16
2022-11-23T04:10:11.331Z,99212.03
2022-11-23T04:12:40.338Z,99204.53
2022-11-23T04:15:08.661Z,99211.28
2022-11-23T04:17:36.650Z,99209.44
2022-11-23T04:20:05.099Z,99208.69
2022-11-23T04:22:33.944Z,99211.25
2022-11-23T04:25:02.178Z,99208.13
2022-11-23T04:27:29.825Z,99205.31
2022-11-23T04:29:57.934Z,99211.25
2022-11-23T04:32:25.841Z,99205.81
2022-11-23T04:34:54.079Z,99205.03
2022-11-23T04:37:22.053Z,99204.50
2022-11-23T04:39:50.397Z,99199.06
2022-11-23T04:42:18.310Z,99208.13
2022-11-23T04:44:47.080Z,99208.59
2022-11-23T04:47:15.027Z,99202.38
2022-11-23T04:49:45.373Z,99199.81
2022-11-23T04:52:13.036Z,99205.41
2022-11-23T04:54:41.294Z,99203.88
2022-11-23T04:57:09.827Z,99198.22
2022-11-23T04:59:38.338Z,99195.13
2022-11-23T05:02:06.594Z,99202.28
2022-11-23T05:04:36.399Z,99208.81
2022-11-23T05:07:04.220Z,99214.53
2022-11-23T05:09:33.004Z,99214.28
2022-11-23T05:12:00.989Z,99208.84
2022-11-23T05:14:28.721Z,99202.81
2022-11-23T05:16:56.653Z,99195.59
2022-11-23T05:19:24.316Z,99191.44
2022-11-23T05:21:52.004Z,99188.06
2022-11-23T05:24:22.039Z,99187.81
2022-11-23T05:26:56.209Z,99202.09
2022-11-23T05:29:24.359Z,99194.53
2022-11-23T05:31:52.661Z,99199.63
2022-11-23T05:34:20.280Z,99185.22
2022-11-23T05:36:48.156Z,99188.81
2022-11-23T05:39:15.994Z,99176.38
2022-11-23T05:41:44.126Z,99177.47
2022-11-23T05:44:14.424Z,99173.31
2022-11-23T05:46:42.020Z,99173.00
2022-11-23T05:49:10.486Z,99166.06
2022-11-23T05:51:38.746Z,99164.50
2022-11-23T05:54:06.940Z,99163.53
2022-11-23T05:56:39.996Z,99163.59
2022-11-23T05:59:09.126Z,99171.31
2022-11-23T06:01:37.005Z,99179.50
2022-11-23T06:04:06.862Z,99182.94
2022-11-23T06:06:34.842Z,99180.06
2022-11-23T06:09:02.630Z,99185.28
2022-11-23T06:11:31.445Z,99177.28
2022-11-23T06:13:59.663Z,99182.69
2022-11-23T06:16:27.393Z,99182.41
2022-11-23T06:18:55.872Z,99186.59
2022-11-23T06:21:23.694Z,99191.53
2022-11-23T06:23:51.486Z,99197.72
2022-11-23T06:26:21.072Z,99191.00
2022-11-23T06:28:49.154Z,99194.66
2022-11-23T06:31:17.435Z,99187.91
2022-11-23T06:33:45.308Z,99187.69
2022-11-23T06:36:15.533Z,99192.81
2022-11-23T06:38:43.700Z,99197.78
2022-11-23T06:41:11.870Z,99206.09
2022-11-23T06:43:40.208Z,99210.22
2022-11-23T06:46:08.000Z,99210.50
2022-11-23T06:48:39.688Z,99216.44
2022-11-23T06:51:11.686Z,99215.94
2022-11-23T06:53:43.282Z,99216.19
2022-11-23T06:56:11.578Z,99225.28
2022-11-23T06:58:40.088Z,99223.72
2022-11-23T07:01:10.241Z,99222.59
2022-11-23T07:03:38.355Z,99235.31
2022-11-23T07:06:08.154Z,99235.56
2022-11-23T07:08:39.980Z,99240.78
2022-11-23T07:11:13.365Z,99236.66
2022-11-23T07:13:41.214Z,99237.94
2022-11-23T07:16:09.827Z,99230.97
2022-11-23T07:18:38.275Z,99228.38
2022-11-23T07:21:06.993Z,99228.91
2022-11-23T07:23:38.756Z,99232.53
2022-11-23T07:26:07.680Z,99232.53
2022-11-23T07:28:36.055Z,99229.94
2022-11-23T07:31:03.762Z,99222.69
2022-11-23T07:33:31.594Z,99220.56
2022-11-23T07:36:03.683Z,99219.81
2022-11-23T07:38:31.582Z,99227.34
2022-11-23T07:41:01.759Z,99226.56
2022-11-23T07:43:30.514Z,99228.38
2022-11-23T07:45:58.469Z,99227.88
2022-11-23T07:48:26.457Z,99228.91
2022-11-23T07:50:54.831Z,99223.22
2022-11-23T07:53:23.758Z,99211.84
2022-11-23T07:55:57.124Z,99213.88
2022-11-23T07:58:25.706Z,99221.13
2022-11-23T08:00:53.734Z,99211.53
2022-11-23T08:03:29.791Z,99211.03
2022-11-23T08:05:57.829Z,99214.38
2022-11-23T08:08:25.960Z,99212.59
2022-11-23T08:10:54.618Z,99211.56
2022-11-23T08:13:23.032Z,99220.84
2022-11-23T08:15:55.451Z,99225.75
2022-11-23T08:18:27.287Z,99232.25
2022-11-23T08:20:55.441Z,99220.56
2022-11-23T08:23:23.065Z,99227.50
2022-11-23T08:25:50.544Z,99222.66
2022-11-23T08:28:18.462Z,99220.56
2022-11-23T08:30:46.684Z,99218.63
2022-11-23T08:33:15.063Z,99221.47
2022-11-23T08:35:43.747Z,99219.12
2022-11-23T08:38:11.477Z,99215.84
2022-11-23T08:40:39.382Z,99214.25
2022-11-23T08:43:07.429Z,99227.22
2022-11-23T08:45:35.121Z,99227.31
2022-11-23T08:48:03.853Z,99222.66
2022-11-23T08:50:34.425Z,99217.91
2022-11-23T08:53:01.992Z,99223.66
2022-11-23T08:55:30.127Z,99221.56
2022-11-23T08:57:59.005Z,99219.91
2022-11-23T09:00:27.623Z,99229.75
2022-11-23T09:02:55.469Z,99226.00
2022-11-23T09:05:23.345Z,99238.37
2022-11-23T09:07:50.970Z,99224.69
2022-11-23T09:10:19.459Z,99225.03
2022-11-23T09:12:48.173Z,99217.28
2022-11-23T09:15:15.765Z,99214.97
2022-11-23T09:17:43.962Z,99213.19
2022-11-23T09:20:12.116Z,99206.41
2022-11-23T09:22:39.631Z,99207.34
2022-11-23T09:25:07.646Z,99208.37
2022-11-23T09:27:35.558Z,99200.56
2022-11-23T09:30:03.249Z,99204.53
2022-11-23T09:32:32.552Z,99202.22
2022-11-23T09:35:00.368Z,99203.97
2022-11-23T09:37:27.953Z,99206.94
2022-11-23T09:39:55.704Z,99202.13
2022-11-23T09:42:42.214Z,99193.19
2022-11-23T09:45:41.941Z,99188.47
2022-11-23T09:48:25.738Z,99190.28
2022-11-23T09:51:10.997Z,99189.16
2022-11-23T09:54:00.971Z,99181.78
2022-11-23T09:56:32.760Z,99187.84
2022-11-23T09:59:22.490Z,99183.03
2022-11-23T10:01:50.542Z,99193.13
2022-11-23T10:04:20.313Z,99191.13
2022-11-23T10:07:31.856Z,99189.78
2022-11-23T10:10:14.816Z,99186.81
2022-11-23T10:13:01.810Z,99187.50
2022-11-23T10:15:51.833Z,99189.94
2022-11-23T10:19:07.590Z,99189.22
2022-11-23T10:21:55.815Z,99188.62
2022-11-23T10:24:32.408Z,99186.22
2022-11-23T10:27:01.476Z,99182.41
2022-11-23T10:29:31.357Z,99179.50
2022-11-23T10:32:00.829Z,99188.59
2022-11-23T10:35:05.897Z,99183.19
2022-11-23T10:37:35.801Z,99179.31
2022-11-23T10:40:04.178Z,99179.94
2022-11-23T10:42:38.413Z,99183.88
2022-11-23T10:45:18.225Z,99203.00
2022-11-23T10:48:00.835Z,99193.94
2022-11-23T10:50:30.556Z,99197.62
2022-11-23T10:53:14.225Z,99200.25
2022-11-23T10:55:53.662Z,99202.16
2022-11-23T10:58:30.505Z,99204.34
2022-11-23T11:01:02.943Z,99207.31
2022-11-23T11:03:33.458Z,99207.22
2022-11-23T11:06:10.789Z,99199.63
2022-11-23T11:08:55.382Z,99194.75
2022-11-23T11:11:30.785Z,99191.34
2022-11-23T11:14:16.200Z,99192.44
2022-11-23T11:16:53.002Z,99188.31
2022-11-23T11:19:29.562Z,99180.72
2022-11-23T11:21:59.449Z,99182.25
2022-11-23T11:24:59.119Z,99186.59
2022-11-23T11:27:29.991Z,99179.53
2022-11-23T11:30:20.507Z,99182.97
2022-11-23T11:32:56.182Z,99183.22
2022-11-23T11:35:33.090Z,99180.31
2022-11-23T11:38:37.964Z,99181.44
2022-11-23T11:41:16.806Z,99197.22
2022-11-23T11:44:16.215Z,99191.03
2022-11-23T11:46:51.644Z,99195.31
2022-11-23T11:49:25.276Z,99193.37
2022-11-23T11:52:10.931Z,99189.22
2022-11-23T11:55:03.716Z,99189.47
2022-11-23T11:57:40.050Z,99184.69
2022-11-23T12:00:17.350Z,99186.97
2022-11-23T12:03:15.019Z,99191.84
2022-11-23T12:05:49.943Z,99193.44
2022-11-23T12:08:33.158Z,99193.13
2022-11-23T12:11:05.833Z,99193.94
2022-11-23T12:13:36.158Z,99195.38
2022-11-23T12:16:44.370Z,99197.41
2022-11-23T12:19:36.210Z,99200.50
2022-11-23T12:22:27.125Z,99197.75
2022-11-23T12:25:03.978Z,99181.78
2022-11-23T12:27:54.750Z,99190.31
2022-11-23T12:30:26.119Z,99192.22
2022-11-23T12:33:38.090Z,99185.31
2022-11-23T12:36:29.042Z,99184.09
2022-11-23T12:39:11.826Z,99189.50
2022-11-23T12:41:51.613Z,99182.16
2022-11-23T12:44:37.187Z,99180.03
2022-11-23T12:47:27.368Z,99182.69
2022-11-23T12:50:15.203Z,99184.75
2022-11-23T12:53:05.073Z,99185.44
2022-11-23T12:55:44.692Z,99187.56
2022-11-23T12:58:30.636Z,99189.88
2022-11-23T13:01:05.531Z,99185.03
2022-11-23T13:03:45.560Z,99189.06
2022-11-23T13:06:19.291Z,99193.19
2022-11-23T13:09:05.464Z,99188.66
2022-11-23T13:12:14.524Z,99188.13
2022-11-23T13:15:16.318Z,99194.03
2022-11-23T13:17:56.511Z,99196.72
2022-11-23T13:21:03.091Z,99203.19
2022-11-23T13:23:38.468Z,99202.44
2022-11-23T13:26:19.403Z,99208.19
2022-11-23T13:28:48.922Z,99202.78
2022-11-23T13:31:17.045Z,99205.16
2022-11-23T13:33:46.610Z,99204.81
2022-11-23T13:36:49.349Z,99204.81
2022-11-23T13:39:47.832Z,99195.69
2022-11-23T13:42:15.582Z,99204.09
2022-11-23T13:44:43.565Z,99203.06
2022-11-23T13:47:16.047Z,99210.59
2022-11-23T13:49:51.222Z,99215.16
2022-11-23T13:52:21.837Z,99210.88
2022-11-23T13:55:09.476Z,99210.94
2022-11-23T13:57:39.352Z,99215.81
2022-11-23T14:00:44.919Z,99211.84
2022-11-23T14:03:44.307Z,99213.69
2022-11-23T14:06:30.321Z,99213.41
2022-11-23T14:09:06.854Z,99216.06
2022-11-23T14:11:51.280Z,99220.25
2022-11-23T14:14:24.271Z,99218.88
2022-11-23T14:17:06.191Z,99224.72
2022-11-23T14:19:45.466Z,99219.78
2022-11-23T14:22:40.490Z,99225.84
2022-11-23T14:25:35.913Z,99226.34
2022-11-23T14:28:22.825Z,99232.97
2022-11-23T14:31:32.637Z,99235.62
2022-11-23T14:34:38.053Z,99237.47
2022-11-23T14:37:27.681Z,99228.50
2022-11-23T14:40:05.433Z,99231.97
2022-11-23T14:42:39.803Z,99231.53
2022-11-23T14:45:12.418Z,99239.28
2022-11-23T14:47:40.609Z,99230.34
2022-11-23T14:50:40.842Z,99235.69
2022-11-23T14:53:11.122Z,99234.56
2022-11-23T14:55:39.323Z,99233.44
2022-11-23T14:58:08.187Z,99242.00
2022-11-23T15:00:40.258Z,99240.09
2022-11-23T15:06:17.536Z,99244.41
2022-11-23T15:09:14.657Z,99242.84
2022-11-23T15:11:43.003Z,99244.34
2022-11-23T15:14:26.030Z,99240.97
2022-11-23T15:16:54.020Z,99246.59
2022-11-23T15:19:29.567Z,99235.88
2022-11-23T15:21:57.861Z,99246.72
2022-11-23T15:24:27.278Z,99248.72
2022-11-23T15:27:10.896Z,99251.66
2022-11-23T15:29:40.373Z,99257.47
2022-11-23T15:32:32.643Z,99252.81
2022-11-23T15:35:11.504Z,99244.06
2022-11-23T15:37:49.997Z,99245.16
2022-11-23T15:40:22.384Z,99243.06
2022-11-23T15:42:51.526Z,99238.97
2022-11-23T15:45:42.845Z,99242.75
2022-11-23T15:48:16.565Z,99251.75
2022-11-23T15:50:59.083Z,99252.16
2022-11-23T15:53:45.066Z,99252.50
2022-11-23T15:56:23.851Z,99254.66
2022-11-23T15:58:53.192Z,99256.38
2022-11-23T16:01:22.288Z,99257.78
2022-11-23T16:03:55.748Z,99251.94
2022-11-23T16:06:38.984Z,99253.16
2022-11-23T16:09:50.489Z,99247.47
2022-11-23T16:12:22.065Z,99251.06
2022-11-23T16:14:51.829Z,99243.53
2022-11-23T16:17:37.735Z,99253.03
2022-11-23T16:20:15.225Z,99251.19
2022-11-23T16:22:48.941Z,99258.12
2022-11-23T16:25:32.184Z,99263.72
2022-11-23T16:28:05.964Z,99259.84
2022-11-23T16:30:46.394Z,99262.88
2022-11-23T16:33:16.122Z,99256.66
2022-11-23T16:35:45.210Z,99258.03
2022-11-23T16:38:13.445Z,99262.41
2022-11-23T16:40:44.676Z,99263.00
2022-11-23T16:43:13.339Z,99262.88
2022-11-23T16:45:43.692Z,99262.19
2022-11-23T16:48:26.518Z,99256.25
2022-11-23T16:50:56.085Z,99258.75
2022-11-23T16:53:26.940Z,99264.34
2022-11-23T16:55:56.855Z,99263.44
2022-11-23T16:58:27.650Z,99271.50
2022-11-23T17:00:55.979Z,99268.41
2022-11-23T17:03:24.477Z,99263.66
2022-11-23T17:05:52.281Z,99274.63
2022-11-23T17:08:23.837Z,99272.19
2022-11-23T17:10:53.275Z,99282.16
2022-11-23T17:13:28.669Z,99278.38
2022-11-23T17:15:59.219Z,99278.16
2022-11-23T17:18:27.357Z,99276.59
2022-11-23T17:20:56.158Z,99277.94
2022-11-23T17:23:23.848Z,99278.66
2022-11-23T17:25:51.832Z,99285.31
2022-11-23T17:28:22.695Z,99287.09
2022-11-23T17:30:50.816Z,99289.69
2022-11-23T17:33:19.043Z,99301.91
2022-11-23T17:35:47.087Z,99294.50
2022-11-23T17:38:17.844Z,99294.69
2022-11-23T17:40:47.324Z,99297.44
2022-11-23T17:43:15.281Z,99299.97
2022-11-23T17:45:44.647Z,99297.19
2022-11-23T17:48:14.908Z,99307.69
2022-11-23T17:50:42.698Z,99305.88
2022-11-23T17:53:11.323Z,99304.81
2022-11-23T17:55:39.724Z,99305.25
2022-11-23T17:58:07.972Z,99302.06
2022-11-23T18:00:37.587Z,99303.38
2022-11-23T18:03:06.541Z,99308.22
2022-11-23T18:05:34.416Z,99307.03
2022-11-23T18:08:02.306Z,99314.06
2022-11-23T18:10:30.410Z,99306.44
2022-11-23T18:12:58.334Z,99310.28
2022-11-23T18:15:26.221Z,99319.09
2022-11-23T18:17:54.268Z,99314.16
2022-11-23T18:20:22.528Z,99316.41
2022-11-23T18:22:50.704Z,99311.25
2022-11-23T18:25:18.753Z,99319.91
2022-11-23T18:27:46.639Z,99313.09
2022-11-23T18:30:17.317Z,99316.34
2022-11-23T18:32:45.607Z,99309.91
2022-11-23T18:35:13.451Z,99310.88
2022-11-23T18:37:41.336Z,99316.22
2022-11-23T18:40:10.058Z,99327.84
2022-11-23T18:42:37.894Z,99329.84
2022-11-23T18:45:06.082Z,99314.34
2022-11-23T18:47:34.706Z,99312.69
2022-11-23T18:50:06.987Z,99319.75
2022-11-23T18:52:35.175Z,99315.22
2022-11-23T18:55:02.922Z,99328.16
2022-11-23T18:57:30.835Z,99327.22
2022-11-23T18:59:59.333Z,99323.13
2022-11-23T19:02:28.036Z,99331.25
2022-11-23T19:04:56.289Z,99324.41
2022-11-23T19:07:27.082Z,99327.00
2022-11-23T19:09:56.046Z,99332.16
2022-11-23T19:12:24.112Z,99340.06
2022-11-23T19:14:53.823Z,99332.81
2022-11-23T19:17:21.414Z,99335.47
2022-11-23T19:19:49.316Z,99331.47
2022-11-23T19:22:20.262Z,99335.88
2022-11-23T19:24:48.103Z,99342.72
2022-11-23T19:27:16.321Z,99342.50
2022-11-23T19:29:44.265Z,99333.00
2022-11-23T19:32:11.818Z,99337.59
2022-11-23T19:34:40.266Z,99343.44
2022-11-23T19:37:08.181Z,99333.88
2022-11-23T19:39:36.291Z,99335.59
2022-11-23T19:42:05.598Z,99336.97
2022-11-23T19:44:33.530Z,99340.47
2022-11-23T19:47:02.683Z,99342.41
2022-11-23T19:49:32.157Z,99350.38
2022-11-23T19:52:00.087Z,99343.56
2022-11-23T19:54:28.616Z,99355.09
2022-11-23T19:56:56.872Z,99360.59
2022-11-23T19:59:25.892Z,99360.69
2022-11-23T20:01:53.892Z,99366.78
2022-11-23T20:04:22.071Z,99369.88
2022-11-23T20:06:49.931Z,99369.53
2022-11-23T20:09:19.455Z,99368.78
2022-11-23T20:11:50.843Z,99379.91
2022-11-23T20:14:19.810Z,99377.38
2022-11-23T20:16:48.406Z,99372.94
2022-11-23T20:19:16.575Z,99381.56
2022-11-23T20:21:44.786Z,99379.47
2022-11-23T20:24:14.878Z,99374.66
2022-11-23T20:26:43.016Z,99381.09
2022-11-23T20:29:13.752Z,99375.84
2022-11-23T20:31:41.960Z,99375.31
2022-11-23T20:34:14.157Z,99381.59
2022-11-23T20:36:44.996Z,99386.53
2022-11-23T20:39:14.147Z,99384.75
2022-11-23T20:41:43.020Z,99386.91
2022-11-23T20:44:13.717Z,99386.59
2022-11-23T20:49:30.526Z,99391.22
2022-11-23T20:51:59.191Z,99385.56
2022-11-23T20:54:28.074Z,99393.13
2022-11-23T20:56:58.142Z,99397.50
2022-11-23T20:59:26.401Z,99402.22
2022-11-23T21:01:54.265Z,99409.72
2022-11-23T21:04:22.337Z,99402.22
2022-11-23T21:06:49.943Z,99404.50
2022-11-23T21:09:17.791Z,99401.91
2022-11-23T21:12:05.210Z,99401.69
2022-11-23T21:14:34.196Z,99408.69
2022-11-23T21:17:02.641Z,99407.09
2022-11-23T21:19:35.184Z,99408.00
2022-11-23T21:22:06.511Z,99414.91
2022-11-23T21:24:35.525Z,99416.13
2022-11-23T21:27:05.363Z,99414.91
2022-11-23T21:29:33.438Z,99421.63
2022-11-23T21:32:04.113Z,99411.16
2022-11-23T21:34:32.472Z,99418.19
2022-11-23T21:37:00.493Z,99414.75
2022-11-23T21:39:30.968Z,99417.88
2022-11-23T21:41:59.249Z,99420.41
2022-11-23T21:44:26.817Z,99410.25
2022-11-23T21:46:54.427Z,99417.19
2022-11-23T21:49:22.526Z,99419.44
2022-11-23T21:51:50.091Z,99416.16
2022-11-23T21:54:17.726Z,99418.41
2022-11-23T21:56:46.117Z,99425.94
2022-11-23T21:59:14.387Z,99429.31
2022-11-23T22:01:42.568Z,99424.47
2022-11-23T22:04:12.972Z,99427.22
2022-11-23T22:06:42.133Z,99435.50
2022-11-23T22:09:11.667Z,99431.69
2022-11-23T22:11:41.610Z,99444.41
2022-11-23T22:14:14.796Z,99442.06
2022-11-23T22:16:45.443Z,99442.84
2022-11-23T22:19:15.796Z,99440.16
2022-11-23T22:21:45.220Z,99438.81
2022-11-23T22:24:15.300Z,99435.53
2022-11-23T22:26:43.866Z,99436.16
2022-11-23T22:29:11.857Z,99435.63
2022-11-23T22:31:39.828Z,99440.84
2022-11-23T22:34:11.308Z,99442.59
2022-11-23T22:36:39.158Z,99437.81
2022-11-23T22:39:07.288Z,99440.69
2022-11-23T22:41:38.591Z,99443.44
2022-11-23T22:44:08.213Z,99437.41
2022-11-23T22:46:37.264Z,99439.06
2022-11-23T22:49:05.049Z,99440.34
2022-11-23T22:51:33.148Z,99439.59
2022-11-23T22:54:01.617Z,99438.91
2022-11-23T22:56:30.905Z,99440.56
2022-11-23T22:58:58.998Z,99442.28
2022-11-23T23:01:29.265Z,99443.56
2022-11-23T23:03:59.089Z,99440.16
2022-11-23T23:06:29.344Z,99436.16
2022-11-23T23:08:58.878Z,99446.13
2022-11-23T23:11:29.142Z,99436.34
2022-11-23T23:13:57.369Z,99441.09
2022-11-23T23:16:25.160Z,99442.34
2022-11-23T23:18:56.892Z,99435.13
2022-11-23T23:21:24.924Z,99441.16
2022-11-23T23:23:54.906Z,99439.69
2022-11-23T23:26:25.106Z,99440.69
2022-11-23T23:28:58.013Z,99442.16
2022-11-23T23:31:26.167Z,99437.22
2022-11-23T23:33:54.170Z,99445.34
2022-11-23T23:36:23.091Z,99449.12
2022-11-23T23:38:51.314Z,99454.47
2022-11-23T23:41:19.528Z,99444.22
2022-11-23T23:43:48.282Z,99449.28
2022-11-23T23:46:16.270Z,99453.88
2022-11-23T23:48:44.771Z,99452.09
2022-11-23T23:51:15.268Z,99449.03
2022-11-23T23:53:43.866Z,99455.50
2022-11-23T23:56:14.559Z,99451.94
2022-11-23T23:58:43.032Z,99455.03
